Terminal Aerodrome Forecast
Issued by NWS Louisville, KY

Home | Current Version | Previous Version | Text Only | Print | Product List | Glossary On
Versions: 1 2 3 4 5 6 7 8 9 10 11 12 13 14
000
FTUS43 KLMK 231615 AAB
TAFLEX
TAF AMD
KLEX 231615Z 2316/2412 VRB03KT P6SM SCT027 SCT250
      TEMPO 2316/2318 BKN027
     FM231800 VRB04KT P6SM SCT040 SCT250
     FM240000 VRB03KT P6SM FEW050 SCT250=

USA.gov is the U.S. government's official web portal to all federal, state and local government web resources and services.